Bowling Green St University, Ohio
Current Conditions -  °F | °C
As of 10:53 AM on Sunday 23 Nov 2014 (Local Time) from KTDZ Reporting Station
Overcast Overcast  
Wind Chill: 50°   Ceiling: 8000
Heat Index: 50°   Visibility: 10mi
Dew Point: 43°   Wind: 12mph
Humidity: 77%   Direction: 170°S
Pressure: 29.92"   Gusts: NA
Location:  41.3748°N, 83.6515°W
Report Text: KTDZ 231553Z AUTO 17010KT 10SM FEW043 OVC080 10/06 A2992 RMK AO2 SLP134 T01000061 TSNO
Loading
Personal Weather Stations






























Interactive Weather Map New forecast layout! Learn more

10-Day Weather Forecast

Advertisements
Track Severe Weather on mobile